sensor_id;sensor_type;location;lat;lon;timestamp;temperature;humidity
31765;DHT22;18338;53.240;8.798;2023-04-24T00:01:02;11.20;99.90
31765;DHT22;18338;53.240;8.798;2023-04-24T00:03:28;11.20;99.90
31765;DHT22;18338;53.240;8.798;2023-04-24T00:05:56;11.20;99.90
31765;DHT22;18338;53.240;8.798;2023-04-24T00:08:22;11.20;99.90
31765;DHT22;18338;53.240;8.798;2023-04-24T00:10:50;11.20;99.90
31765;DHT22;18338;53.240;8.798;2023-04-24T00:13:18;11.20;99.90
31765;DHT22;18338;53.240;8.798;2023-04-24T00:15:45;11.20;99.90
31765;DHT22;18338;53.240;8.798;2023-04-24T00:18:12;11.20;99.90
31765;DHT22;18338;53.240;8.798;2023-04-24T00:20:38;11.20;99.90
31765;DHT22;18338;53.240;8.798;2023-04-24T00:23:06;11.30;99.90
31765;DHT22;18338;53.240;8.798;2023-04-24T00:25:32;11.20;99.90
31765;DHT22;18338;53.240;8.798;2023-04-24T00:28:00;11.30;99.90
31765;DHT22;18338;53.240;8.798;2023-04-24T00:30:26;11.30;99.90
31765;DHT22;18338;53.240;8.798;2023-04-24T00:32:53;11.30;99.90
31765;DHT22;18338;53.240;8.798;2023-04-24T00:35:20;11.20;99.90
31765;DHT22;18338;53.240;8.798;2023-04-24T00:37:46;11.30;99.90
31765;DHT22;18338;53.240;8.798;2023-04-24T00:40:13;11.20;99.90
31765;DHT22;18338;53.240;8.798;2023-04-24T00:42:40;11.20;99.90
31765;DHT22;18338;53.240;8.798;2023-04-24T00:45:07;11.20;99.90
31765;DHT22;18338;53.240;8.798;2023-04-24T00:47:34;11.20;99.90
31765;DHT22;18338;53.240;8.798;2023-04-24T00:50:05;11.20;99.90
31765;DHT22;18338;53.240;8.798;2023-04-24T00:52:32;11.20;99.90
31765;DHT22;18338;53.240;8.798;2023-04-24T00:54:59;11.20;99.90
31765;DHT22;18338;53.240;8.798;2023-04-24T00:57:26;11.30;99.90
31765;DHT22;18338;53.240;8.798;2023-04-24T00:59:53;11.20;99.90
31765;DHT22;18338;53.240;8.798;2023-04-24T01:02:22;11.20;99.90
31765;DHT22;18338;53.240;8.798;2023-04-24T01:04:50;11.20;99.90
31765;DHT22;18338;53.240;8.798;2023-04-24T01:07:20;11.20;99.90
31765;DHT22;18338;53.240;8.798;2023-04-24T01:09:48;11.20;99.90
31765;DHT22;18338;53.240;8.798;2023-04-24T01:12:17;11.30;99.90
31765;DHT22;18338;53.240;8.798;2023-04-24T01:14:45;11.20;99.90
31765;DHT22;18338;53.240;8.798;2023-04-24T01:17:11;11.00;99.90
31765;DHT22;18338;53.240;8.798;2023-04-24T01:19:38;10.90;99.90
31765;DHT22;18338;53.240;8.798;2023-04-24T01:22:11;10.90;99.90
31765;DHT22;18338;53.240;8.798;2023-04-24T01:24:38;11.00;99.90
31765;DHT22;18338;53.240;8.798;2023-04-24T01:27:05;11.00;99.90
31765;DHT22;18338;53.240;8.798;2023-04-24T01:29:32;11.10;99.90
31765;DHT22;18338;53.240;8.798;2023-04-24T01:31:59;11.00;99.90
31765;DHT22;18338;53.240;8.798;2023-04-24T01:34:26;10.80;99.90
31765;DHT22;18338;53.240;8.798;2023-04-24T01:39:30;10.90;99.90
31765;DHT22;18338;53.240;8.798;2023-04-24T01:41:57;10.80;99.90
31765;DHT22;18338;53.240;8.798;2023-04-24T01:44:23;10.70;99.90
31765;DHT22;18338;53.240;8.798;2023-04-24T01:46:50;10.70;99.90
31765;DHT22;18338;53.240;8.798;2023-04-24T01:49:17;10.70;99.90
31765;DHT22;18338;53.240;8.798;2023-04-24T01:51:44;10.70;99.90
31765;DHT22;18338;53.240;8.798;2023-04-24T01:54:11;10.70;99.90
31765;DHT22;18338;53.240;8.798;2023-04-24T01:56:41;10.70;99.90
31765;DHT22;18338;53.240;8.798;2023-04-24T01:59:11;10.70;99.90
31765;DHT22;18338;53.240;8.798;2023-04-24T02:01:39;10.70;99.90
31765;DHT22;18338;53.240;8.798;2023-04-24T02:04:06;10.70;99.90
31765;DHT22;18338;53.240;8.798;2023-04-24T02:06:34;10.70;99.90
31765;DHT22;18338;53.240;8.798;2023-04-24T02:09:01;10.70;99.90
31765;DHT22;18338;53.240;8.798;2023-04-24T02:11:29;10.70;99.90
31765;DHT22;18338;53.240;8.798;2023-04-24T02:13:56;10.70;99.90
31765;DHT22;18338;53.240;8.798;2023-04-24T02:16:22;10.80;99.90
31765;DHT22;18338;53.240;8.798;2023-04-24T02:18:49;10.80;99.90
31765;DHT22;18338;53.240;8.798;2023-04-24T02:21:16;10.80;99.90
31765;DHT22;18338;53.240;8.798;2023-04-24T02:23:43;10.90;99.90
31765;DHT22;18338;53.240;8.798;2023-04-24T02:26:09;10.90;99.90
31765;DHT22;18338;53.240;8.798;2023-04-24T02:28:36;11.00;99.90
31765;DHT22;18338;53.240;8.798;2023-04-24T02:31:03;11.00;99.90
31765;DHT22;18338;53.240;8.798;2023-04-24T02:33:29;11.10;99.90
31765;DHT22;18338;53.240;8.798;2023-04-24T02:35:56;11.10;99.90
31765;DHT22;18338;53.240;8.798;2023-04-24T02:38:23;11.10;99.90
31765;DHT22;18338;53.240;8.798;2023-04-24T02:40:49;11.10;99.90
31765;DHT22;18338;53.240;8.798;2023-04-24T02:43:16;11.10;99.90
31765;DHT22;18338;53.240;8.798;2023-04-24T02:45:42;11.10;99.90
31765;DHT22;18338;53.240;8.798;2023-04-24T02:48:09;11.10;99.90
31765;DHT22;18338;53.240;8.798;2023-04-24T02:50:36;11.10;99.90
31765;DHT22;18338;53.240;8.798;2023-04-24T02:53:02;11.20;99.90
31765;DHT22;18338;53.240;8.798;2023-04-24T02:55:29;11.20;99.90
31765;DHT22;18338;53.240;8.798;2023-04-24T02:57:56;11.20;99.90
31765;DHT22;18338;53.240;8.798;2023-04-24T03:00:23;11.10;99.90
31765;DHT22;18338;53.240;8.798;2023-04-24T03:02:50;11.10;99.90
31765;DHT22;18338;53.240;8.798;2023-04-24T03:05:17;11.00;99.90
31765;DHT22;18338;53.240;8.798;2023-04-24T03:07:44;11.00;99.90
31765;DHT22;18338;53.240;8.798;2023-04-24T03:10:11;10.90;99.90
31765;DHT22;18338;53.240;8.798;2023-04-24T03:12:38;10.90;99.90
31765;DHT22;18338;53.240;8.798;2023-04-24T03:15:05;10.90;99.90
31765;DHT22;18338;53.240;8.798;2023-04-24T03:17:32;10.80;99.90
31765;DHT22;18338;53.240;8.798;2023-04-24T03:19:59;10.80;99.90
31765;DHT22;18338;53.240;8.798;2023-04-24T03:22:25;10.80;99.90
31765;DHT22;18338;53.240;8.798;2023-04-24T03:24:52;10.80;99.90
31765;DHT22;18338;53.240;8.798;2023-04-24T03:27:18;10.80;99.90
31765;DHT22;18338;53.240;8.798;2023-04-24T03:29:45;10.80;99.90
31765;DHT22;18338;53.240;8.798;2023-04-24T03:32:12;10.70;99.90
31765;DHT22;18338;53.240;8.798;2023-04-24T03:34:38;10.70;99.90
31765;DHT22;18338;53.240;8.798;2023-04-24T03:37:05;10.70;99.90
31765;DHT22;18338;53.240;8.798;2023-04-24T03:39:32;10.70;99.90
31765;DHT22;18338;53.240;8.798;2023-04-24T03:41:58;10.80;99.90
31765;DHT22;18338;53.240;8.798;2023-04-24T03:44:25;10.80;99.90
31765;DHT22;18338;53.240;8.798;2023-04-24T03:46:52;10.80;99.90
31765;DHT22;18338;53.240;8.798;2023-04-24T03:49:18;10.80;99.90
31765;DHT22;18338;53.240;8.798;2023-04-24T03:51:45;10.80;99.90
31765;DHT22;18338;53.240;8.798;2023-04-24T03:54:11;10.80;99.90
31765;DHT22;18338;53.240;8.798;2023-04-24T03:56:38;10.80;99.90
31765;DHT22;18338;53.240;8.798;2023-04-24T03:59:05;10.80;99.90
31765;DHT22;18338;53.240;8.798;2023-04-24T04:01:32;10.80;99.90
31765;DHT22;18338;53.240;8.798;2023-04-24T04:03:58;10.80;99.90
31765;DHT22;18338;53.240;8.798;2023-04-24T04:06:25;10.80;99.90
31765;DHT22;18338;53.240;8.798;2023-04-24T04:08:53;10.90;99.90
31765;DHT22;18338;53.240;8.798;2023-04-24T04:11:19;10.90;99.90
31765;DHT22;18338;53.240;8.798;2023-04-24T04:13:46;10.80;99.90
31765;DHT22;18338;53.240;8.798;2023-04-24T04:16:14;10.80;99.90
31765;DHT22;18338;53.240;8.798;2023-04-24T04:18:43;10.90;99.90
31765;DHT22;18338;53.240;8.798;2023-04-24T04:21:10;10.90;99.90
31765;DHT22;18338;53.240;8.798;2023-04-24T04:23:38;10.90;99.90
31765;DHT22;18338;53.240;8.798;2023-04-24T04:26:06;10.80;99.90
31765;DHT22;18338;53.240;8.798;2023-04-24T04:28:34;10.90;99.90
31765;DHT22;18338;53.240;8.798;2023-04-24T04:31:01;10.80;99.90
31765;DHT22;18338;53.240;8.798;2023-04-24T04:33:27;10.90;99.90
31765;DHT22;18338;53.240;8.798;2023-04-24T04:35:54;10.80;99.90
31765;DHT22;18338;53.240;8.798;2023-04-24T04:38:23;10.90;99.90
31765;DHT22;18338;53.240;8.798;2023-04-24T04:40:50;10.90;99.90
31765;DHT22;18338;53.240;8.798;2023-04-24T04:43:17;10.90;99.90
31765;DHT22;18338;53.240;8.798;2023-04-24T04:45:44;10.90;99.90
31765;DHT22;18338;53.240;8.798;2023-04-24T04:48:11;10.90;99.90
31765;DHT22;18338;53.240;8.798;2023-04-24T04:50:40;10.90;99.90
31765;DHT22;18338;53.240;8.798;2023-04-24T04:53:06;10.90;99.90
31765;DHT22;18338;53.240;8.798;2023-04-24T04:55:33;11.00;99.90
31765;DHT22;18338;53.240;8.798;2023-04-24T04:58:00;10.90;99.90
31765;DHT22;18338;53.240;8.798;2023-04-24T05:00:27;11.00;99.90
31765;DHT22;18338;53.240;8.798;2023-04-24T05:02:55;11.00;99.90
31765;DHT22;18338;53.240;8.798;2023-04-24T05:05:34;11.10;99.90
31765;DHT22;18338;53.240;8.798;2023-04-24T05:08:01;11.10;99.90
31765;DHT22;18338;53.240;8.798;2023-04-24T05:10:30;11.10;99.90
31765;DHT22;18338;53.240;8.798;2023-04-24T05:12:57;11.10;99.90
31765;DHT22;18338;53.240;8.798;2023-04-24T05:15:23;11.10;99.90
31765;DHT22;18338;53.240;8.798;2023-04-24T05:17:50;11.10;99.90
31765;DHT22;18338;53.240;8.798;2023-04-24T05:20:17;11.10;99.90
31765;DHT22;18338;53.240;8.798;2023-04-24T05:22:44;11.20;99.90
31765;DHT22;18338;53.240;8.798;2023-04-24T05:25:10;11.20;99.90
31765;DHT22;18338;53.240;8.798;2023-04-24T05:27:39;11.20;99.90
31765;DHT22;18338;53.240;8.798;2023-04-24T05:30:06;11.30;99.90
31765;DHT22;18338;53.240;8.798;2023-04-24T05:32:33;11.40;99.90
31765;DHT22;18338;53.240;8.798;2023-04-24T05:35:00;11.40;99.90
31765;DHT22;18338;53.240;8.798;2023-04-24T05:37:27;11.40;99.90
31765;DHT22;18338;53.240;8.798;2023-04-24T05:39:53;11.50;99.90
31765;DHT22;18338;53.240;8.798;2023-04-24T05:42:20;11.50;99.90
31765;DHT22;18338;53.240;8.798;2023-04-24T05:44:47;11.40;99.90
31765;DHT22;18338;53.240;8.798;2023-04-24T05:47:14;11.40;99.90
31765;DHT22;18338;53.240;8.798;2023-04-24T05:49:40;11.50;99.90
31765;DHT22;18338;53.240;8.798;2023-04-24T05:52:07;11.50;99.90
31765;DHT22;18338;53.240;8.798;2023-04-24T05:54:35;11.60;99.90
31765;DHT22;18338;53.240;8.798;2023-04-24T05:57:02;11.70;99.90
31765;DHT22;18338;53.240;8.798;2023-04-24T05:59:36;11.70;99.90
31765;DHT22;18338;53.240;8.798;2023-04-24T06:02:04;11.80;99.90
31765;DHT22;18338;53.240;8.798;2023-04-24T06:04:31;11.90;99.90
31765;DHT22;18338;53.240;8.798;2023-04-24T06:06:58;12.00;99.90
31765;DHT22;18338;53.240;8.798;2023-04-24T06:09:25;12.00;99.90
31765;DHT22;18338;53.240;8.798;2023-04-24T06:11:52;11.90;99.90
31765;DHT22;18338;53.240;8.798;2023-04-24T06:14:19;11.90;99.90
31765;DHT22;18338;53.240;8.798;2023-04-24T06:16:46;11.90;99.90
31765;DHT22;18338;53.240;8.798;2023-04-24T06:19:15;11.80;99.90
31765;DHT22;18338;53.240;8.798;2023-04-24T06:21:42;11.80;99.90
31765;DHT22;18338;53.240;8.798;2023-04-24T06:24:08;11.90;99.90
31765;DHT22;18338;53.240;8.798;2023-04-24T06:26:35;11.80;99.90
31765;DHT22;18338;53.240;8.798;2023-04-24T06:29:02;11.80;99.90
31765;DHT22;18338;53.240;8.798;2023-04-24T06:31:28;11.70;99.90
31765;DHT22;18338;53.240;8.798;2023-04-24T06:33:55;11.70;99.90
31765;DHT22;18338;53.240;8.798;2023-04-24T06:36:22;11.60;99.90
31765;DHT22;18338;53.240;8.798;2023-04-24T06:38:49;11.60;99.90
31765;DHT22;18338;53.240;8.798;2023-04-24T06:41:15;11.60;99.90
31765;DHT22;18338;53.240;8.798;2023-04-24T06:43:42;11.60;99.90
31765;DHT22;18338;53.240;8.798;2023-04-24T06:46:08;11.60;99.90
31765;DHT22;18338;53.240;8.798;2023-04-24T06:48:36;11.60;99.90
31765;DHT22;18338;53.240;8.798;2023-04-24T06:51:02;11.60;99.90
31765;DHT22;18338;53.240;8.798;2023-04-24T06:53:29;11.50;99.90
31765;DHT22;18338;53.240;8.798;2023-04-24T06:55:56;11.60;99.90
31765;DHT22;18338;53.240;8.798;2023-04-24T06:58:23;11.60;99.90
31765;DHT22;18338;53.240;8.798;2023-04-24T07:00:50;11.60;99.90
31765;DHT22;18338;53.240;8.798;2023-04-24T07:03:17;11.60;99.90
31765;DHT22;18338;53.240;8.798;2023-04-24T07:05:44;11.70;99.90
31765;DHT22;18338;53.240;8.798;2023-04-24T07:08:12;11.80;99.90
31765;DHT22;18338;53.240;8.798;2023-04-24T07:10:39;11.80;99.90
31765;DHT22;18338;53.240;8.798;2023-04-24T07:13:06;11.70;99.90
31765;DHT22;18338;53.240;8.798;2023-04-24T07:15:33;11.70;99.90
31765;DHT22;18338;53.240;8.798;2023-04-24T07:18:00;11.60;99.90
31765;DHT22;18338;53.240;8.798;2023-04-24T07:20:30;11.60;99.90
31765;DHT22;18338;53.240;8.798;2023-04-24T07:22:57;11.60;99.90
31765;DHT22;18338;53.240;8.798;2023-04-24T07:25:24;11.60;99.90
31765;DHT22;18338;53.240;8.798;2023-04-24T07:27:50;11.70;99.90
31765;DHT22;18338;53.240;8.798;2023-04-24T07:30:17;11.90;99.90
31765;DHT22;18338;53.240;8.798;2023-04-24T07:32:43;11.90;99.90
31765;DHT22;18338;53.240;8.798;2023-04-24T07:35:10;11.90;99.90
31765;DHT22;18338;53.240;8.798;2023-04-24T07:37:36;11.80;99.90
31765;DHT22;18338;53.240;8.798;2023-04-24T07:40:03;11.80;99.90
31765;DHT22;18338;53.240;8.798;2023-04-24T07:42:30;11.70;99.90
31765;DHT22;18338;53.240;8.798;2023-04-24T07:44:57;11.70;99.90
31765;DHT22;18338;53.240;8.798;2023-04-24T07:47:23;11.90;99.90
31765;DHT22;18338;53.240;8.798;2023-04-24T07:49:50;12.00;99.90
31765;DHT22;18338;53.240;8.798;2023-04-24T07:52:17;12.10;99.90
31765;DHT22;18338;53.240;8.798;2023-04-24T07:54:43;12.40;99.90
31765;DHT22;18338;53.240;8.798;2023-04-24T07:57:10;12.50;99.90
31765;DHT22;18338;53.240;8.798;2023-04-24T07:59:37;12.60;99.90
31765;DHT22;18338;53.240;8.798;2023-04-24T08:02:04;12.80;99.90
31765;DHT22;18338;53.240;8.798;2023-04-24T08:04:30;12.80;99.90
31765;DHT22;18338;53.240;8.798;2023-04-24T08:06:57;12.70;99.90
31765;DHT22;18338;53.240;8.798;2023-04-24T08:09:24;12.60;99.90
31765;DHT22;18338;53.240;8.798;2023-04-24T08:11:53;12.50;99.90
31765;DHT22;18338;53.240;8.798;2023-04-24T08:14:20;12.70;99.90
31765;DHT22;18338;53.240;8.798;2023-04-24T08:16:46;12.80;99.90
31765;DHT22;18338;53.240;8.798;2023-04-24T08:19:13;12.70;99.90
31765;DHT22;18338;53.240;8.798;2023-04-24T08:21:40;12.50;99.90
31765;DHT22;18338;53.240;8.798;2023-04-24T08:24:06;12.40;99.90
31765;DHT22;18338;53.240;8.798;2023-04-24T08:26:34;12.30;99.90
31765;DHT22;18338;53.240;8.798;2023-04-24T08:29:01;12.30;99.90
31765;DHT22;18338;53.240;8.798;2023-04-24T08:31:28;12.00;99.90
31765;DHT22;18338;53.240;8.798;2023-04-24T08:33:55;11.90;99.90
31765;DHT22;18338;53.240;8.798;2023-04-24T08:36:22;11.80;99.90
31765;DHT22;18338;53.240;8.798;2023-04-24T08:38:58;11.80;99.90
31765;DHT22;18338;53.240;8.798;2023-04-24T08:41:27;11.80;99.90
31765;DHT22;18338;53.240;8.798;2023-04-24T08:43:54;11.80;99.90
31765;DHT22;18338;53.240;8.798;2023-04-24T08:46:21;11.90;99.90
31765;DHT22;18338;53.240;8.798;2023-04-24T08:48:49;12.00;99.90
31765;DHT22;18338;53.240;8.798;2023-04-24T08:51:17;12.00;99.90
31765;DHT22;18338;53.240;8.798;2023-04-24T08:53:45;12.00;99.90
31765;DHT22;18338;53.240;8.798;2023-04-24T08:56:12;11.80;99.90
31765;DHT22;18338;53.240;8.798;2023-04-24T08:58:41;11.70;99.90
31765;DHT22;18338;53.240;8.798;2023-04-24T09:01:09;11.80;99.90
31765;DHT22;18338;53.240;8.798;2023-04-24T09:03:36;11.80;99.90
31765;DHT22;18338;53.240;8.798;2023-04-24T09:06:06;11.90;99.90
31765;DHT22;18338;53.240;8.798;2023-04-24T09:08:33;11.90;99.90
31765;DHT22;18338;53.240;8.798;2023-04-24T09:11:00;11.90;99.90
31765;DHT22;18338;53.240;8.798;2023-04-24T09:13:30;11.90;99.90
31765;DHT22;18338;53.240;8.798;2023-04-24T09:15:57;11.80;99.90
31765;DHT22;18338;53.240;8.798;2023-04-24T09:18:24;11.80;99.90
31765;DHT22;18338;53.240;8.798;2023-04-24T09:21:06;11.90;99.90
31765;DHT22;18338;53.240;8.798;2023-04-24T09:23:33;11.90;99.90
31765;DHT22;18338;53.240;8.798;2023-04-24T09:26:01;12.00;99.90
31765;DHT22;18338;53.240;8.798;2023-04-24T09:28:40;12.00;99.90
31765;DHT22;18338;53.240;8.798;2023-04-24T09:31:12;12.10;99.90
31765;DHT22;18338;53.240;8.798;2023-04-24T09:33:40;12.10;99.90
31765;DHT22;18338;53.240;8.798;2023-04-24T09:36:19;12.10;99.90
31765;DHT22;18338;53.240;8.798;2023-04-24T09:38:45;12.10;99.90
31765;DHT22;18338;53.240;8.798;2023-04-24T09:41:13;12.00;99.90
31765;DHT22;18338;53.240;8.798;2023-04-24T09:43:40;11.90;99.90
31765;DHT22;18338;53.240;8.798;2023-04-24T09:46:08;11.90;99.90
31765;DHT22;18338;53.240;8.798;2023-04-24T09:48:37;11.90;99.90
31765;DHT22;18338;53.240;8.798;2023-04-24T09:51:05;11.80;99.90
31765;DHT22;18338;53.240;8.798;2023-04-24T09:53:37;11.80;99.90
31765;DHT22;18338;53.240;8.798;2023-04-24T09:56:09;11.90;99.90
31765;DHT22;18338;53.240;8.798;2023-04-24T09:58:36;12.00;99.90
31765;DHT22;18338;53.240;8.798;2023-04-24T10:01:03;12.00;99.90
31765;DHT22;18338;53.240;8.798;2023-04-24T10:03:31;11.90;99.90
31765;DHT22;18338;53.240;8.798;2023-04-24T10:06:00;11.80;99.90
31765;DHT22;18338;53.240;8.798;2023-04-24T10:08:33;11.80;99.90
31765;DHT22;18338;53.240;8.798;2023-04-24T10:11:01;11.70;99.90
31765;DHT22;18338;53.240;8.798;2023-04-24T10:13:28;11.80;99.90
31765;DHT22;18338;53.240;8.798;2023-04-24T10:15:56;11.70;99.90
31765;DHT22;18338;53.240;8.798;2023-04-24T10:18:24;11.60;99.90
31765;DHT22;18338;53.240;8.798;2023-04-24T10:20:52;11.60;99.90
31765;DHT22;18338;53.240;8.798;2023-04-24T10:23:21;11.50;99.90
31765;DHT22;18338;53.240;8.798;2023-04-24T10:25:49;11.40;99.90
31765;DHT22;18338;53.240;8.798;2023-04-24T10:28:18;11.40;99.90
31765;DHT22;18338;53.240;8.798;2023-04-24T10:30:45;11.40;99.90
31765;DHT22;18338;53.240;8.798;2023-04-24T10:33:13;11.40;99.90
31765;DHT22;18338;53.240;8.798;2023-04-24T10:35:44;11.50;99.90
31765;DHT22;18338;53.240;8.798;2023-04-24T10:38:13;11.70;99.90
31765;DHT22;18338;53.240;8.798;2023-04-24T10:40:40;11.80;99.90
31765;DHT22;18338;53.240;8.798;2023-04-24T10:43:08;11.90;99.90
31765;DHT22;18338;53.240;8.798;2023-04-24T10:45:39;12.10;99.90
31765;DHT22;18338;53.240;8.798;2023-04-24T10:48:09;12.20;99.90
31765;DHT22;18338;53.240;8.798;2023-04-24T10:50:47;12.20;99.90
31765;DHT22;18338;53.240;8.798;2023-04-24T10:53:22;12.20;99.90
31765;DHT22;18338;53.240;8.798;2023-04-24T10:56:03;12.40;99.90
31765;DHT22;18338;53.240;8.798;2023-04-24T11:01:06;12.60;99.90
31765;DHT22;18338;53.240;8.798;2023-04-24T11:03:34;12.70;99.90
31765;DHT22;18338;53.240;8.798;2023-04-24T11:06:07;12.40;99.90
31765;DHT22;18338;53.240;8.798;2023-04-24T11:08:43;12.20;99.90
31765;DHT22;18338;53.240;8.798;2023-04-24T11:11:18;11.90;99.90
31765;DHT22;18338;53.240;8.798;2023-04-24T11:19:09;11.10;99.90
31765;DHT22;18338;53.240;8.798;2023-04-24T11:22:02;11.00;99.90
31765;DHT22;18338;53.240;8.798;2023-04-24T11:24:39;10.80;99.90
31765;DHT22;18338;53.240;8.798;2023-04-24T11:27:15;10.60;99.90
31765;DHT22;18338;53.240;8.798;2023-04-24T11:29:47;10.60;99.90
31765;DHT22;18338;53.240;8.798;2023-04-24T11:32:16;10.60;99.90
31765;DHT22;18338;53.240;8.798;2023-04-24T11:35:13;10.70;99.90
31765;DHT22;18338;53.240;8.798;2023-04-24T11:37:43;10.60;99.90
31765;DHT22;18338;53.240;8.798;2023-04-24T11:40:21;10.60;99.90
31765;DHT22;18338;53.240;8.798;2023-04-24T11:42:51;10.60;99.90
31765;DHT22;18338;53.240;8.798;2023-04-24T11:45:23;10.60;99.90
31765;DHT22;18338;53.240;8.798;2023-04-24T11:47:50;10.60;99.90
31765;DHT22;18338;53.240;8.798;2023-04-24T11:50:18;10.50;99.90
31765;DHT22;18338;53.240;8.798;2023-04-24T11:52:47;10.50;99.90
31765;DHT22;18338;53.240;8.798;2023-04-24T11:57:43;10.30;99.90
31765;DHT22;18338;53.240;8.798;2023-04-24T12:00:19;10.20;99.90
31765;DHT22;18338;53.240;8.798;2023-04-24T12:02:46;10.20;99.90
31765;DHT22;18338;53.240;8.798;2023-04-24T12:05:26;10.20;99.90
31765;DHT22;18338;53.240;8.798;2023-04-24T12:07:53;10.20;99.90
31765;DHT22;18338;53.240;8.798;2023-04-24T12:10:25;10.30;99.90
31765;DHT22;18338;53.240;8.798;2023-04-24T12:12:54;10.20;99.90
31765;DHT22;18338;53.240;8.798;2023-04-24T12:15:22;10.30;99.90
31765;DHT22;18338;53.240;8.798;2023-04-24T12:17:53;10.20;99.90
31765;DHT22;18338;53.240;8.798;2023-04-24T12:20:30;10.20;99.90
31765;DHT22;18338;53.240;8.798;2023-04-24T12:22:58;10.10;99.90
31765;DHT22;18338;53.240;8.798;2023-04-24T12:25:32;10.10;99.90
31765;DHT22;18338;53.240;8.798;2023-04-24T12:30:43;9.90;99.90
31765;DHT22;18338;53.240;8.798;2023-04-24T12:33:21;9.90;99.90
31765;DHT22;18338;53.240;8.798;2023-04-24T12:35:51;10.00;99.90
31765;DHT22;18338;53.240;8.798;2023-04-24T12:38:25;9.90;99.90
31765;DHT22;18338;53.240;8.798;2023-04-24T12:41:06;10.00;99.90
31765;DHT22;18338;53.240;8.798;2023-04-24T12:43:33;10.00;99.90
31765;DHT22;18338;53.240;8.798;2023-04-24T12:46:01;10.10;99.90
31765;DHT22;18338;53.240;8.798;2023-04-24T12:48:28;10.10;99.90
31765;DHT22;18338;53.240;8.798;2023-04-24T12:50:58;10.10;99.90
31765;DHT22;18338;53.240;8.798;2023-04-24T12:53:28;10.00;99.90
31765;DHT22;18338;53.240;8.798;2023-04-24T12:55:56;10.00;99.90
31765;DHT22;18338;53.240;8.798;2023-04-24T12:58:23;10.00;99.90
31765;DHT22;18338;53.240;8.798;2023-04-24T13:00:49;10.00;99.90
31765;DHT22;18338;53.240;8.798;2023-04-24T13:03:16;10.00;99.90
31765;DHT22;18338;53.240;8.798;2023-04-24T13:05:43;10.00;99.90
31765;DHT22;18338;53.240;8.798;2023-04-24T13:08:10;9.90;99.90
31765;DHT22;18338;53.240;8.798;2023-04-24T13:10:37;9.90;99.90
31765;DHT22;18338;53.240;8.798;2023-04-24T13:13:04;9.90;99.90
31765;DHT22;18338;53.240;8.798;2023-04-24T13:15:31;9.90;99.90
31765;DHT22;18338;53.240;8.798;2023-04-24T13:17:58;9.80;99.90
31765;DHT22;18338;53.240;8.798;2023-04-24T13:20:24;9.80;99.90
31765;DHT22;18338;53.240;8.798;2023-04-24T13:22:52;9.80;99.90
31765;DHT22;18338;53.240;8.798;2023-04-24T13:25:19;9.80;99.90
31765;DHT22;18338;53.240;8.798;2023-04-24T13:27:46;9.70;99.90
31765;DHT22;18338;53.240;8.798;2023-04-24T13:30:13;9.70;99.90
31765;DHT22;18338;53.240;8.798;2023-04-24T13:32:40;9.60;99.90
31765;DHT22;18338;53.240;8.798;2023-04-24T13:35:08;9.50;99.90
31765;DHT22;18338;53.240;8.798;2023-04-24T13:37:34;9.30;99.90
31765;DHT22;18338;53.240;8.798;2023-04-24T13:40:01;9.20;99.90
31765;DHT22;18338;53.240;8.798;2023-04-24T13:42:28;9.20;99.90
31765;DHT22;18338;53.240;8.798;2023-04-24T13:44:54;9.20;99.90
31765;DHT22;18338;53.240;8.798;2023-04-24T13:47:21;9.30;99.90
31765;DHT22;18338;53.240;8.798;2023-04-24T13:49:48;9.30;99.90
31765;DHT22;18338;53.240;8.798;2023-04-24T13:52:14;9.30;99.90
31765;DHT22;18338;53.240;8.798;2023-04-24T13:54:42;9.30;99.90
31765;DHT22;18338;53.240;8.798;2023-04-24T13:57:08;9.30;99.90
31765;DHT22;18338;53.240;8.798;2023-04-24T13:59:35;9.20;99.90
31765;DHT22;18338;53.240;8.798;2023-04-24T14:02:01;9.20;99.90
31765;DHT22;18338;53.240;8.798;2023-04-24T14:04:28;9.10;99.90
31765;DHT22;18338;53.240;8.798;2023-04-24T14:06:55;9.00;99.90
31765;DHT22;18338;53.240;8.798;2023-04-24T14:09:22;9.00;99.90
31765;DHT22;18338;53.240;8.798;2023-04-24T14:11:49;9.00;99.90
31765;DHT22;18338;53.240;8.798;2023-04-24T14:14:16;8.90;99.90
31765;DHT22;18338;53.240;8.798;2023-04-24T14:16:42;8.90;99.90
31765;DHT22;18338;53.240;8.798;2023-04-24T14:19:09;8.80;99.90
31765;DHT22;18338;53.240;8.798;2023-04-24T14:21:35;8.80;99.90
31765;DHT22;18338;53.240;8.798;2023-04-24T14:24:02;8.90;99.90
31765;DHT22;18338;53.240;8.798;2023-04-24T14:26:29;8.90;99.90
31765;DHT22;18338;53.240;8.798;2023-04-24T14:28:56;8.90;99.90
31765;DHT22;18338;53.240;8.798;2023-04-24T14:31:39;8.80;99.90
31765;DHT22;18338;53.240;8.798;2023-04-24T14:34:06;8.80;99.90
31765;DHT22;18338;53.240;8.798;2023-04-24T14:36:33;8.80;99.90
31765;DHT22;18338;53.240;8.798;2023-04-24T14:38:59;8.80;99.90
31765;DHT22;18338;53.240;8.798;2023-04-24T14:41:26;8.70;99.90
31765;DHT22;18338;53.240;8.798;2023-04-24T14:43:52;8.70;99.90
31765;DHT22;18338;53.240;8.798;2023-04-24T14:46:19;8.80;99.90
31765;DHT22;18338;53.240;8.798;2023-04-24T14:48:46;8.70;99.90
31765;DHT22;18338;53.240;8.798;2023-04-24T14:51:13;8.70;99.90
31765;DHT22;18338;53.240;8.798;2023-04-24T14:53:40;8.70;99.90
31765;DHT22;18338;53.240;8.798;2023-04-24T14:56:07;8.70;99.90
31765;DHT22;18338;53.240;8.798;2023-04-24T14:58:34;8.70;99.90
31765;DHT22;18338;53.240;8.798;2023-04-24T15:01:01;8.70;99.90
31765;DHT22;18338;53.240;8.798;2023-04-24T15:03:28;8.80;99.90
31765;DHT22;18338;53.240;8.798;2023-04-24T15:05:56;8.80;99.90
31765;DHT22;18338;53.240;8.798;2023-04-24T15:08:23;8.70;99.90
31765;DHT22;18338;53.240;8.798;2023-04-24T15:10:50;8.70;99.90
31765;DHT22;18338;53.240;8.798;2023-04-24T15:13:17;8.70;99.90
31765;DHT22;18338;53.240;8.798;2023-04-24T15:15:46;8.70;99.90
31765;DHT22;18338;53.240;8.798;2023-04-24T15:18:16;8.70;99.90
31765;DHT22;18338;53.240;8.798;2023-04-24T15:20:43;8.70;99.90
31765;DHT22;18338;53.240;8.798;2023-04-24T15:23:10;8.80;99.90
31765;DHT22;18338;53.240;8.798;2023-04-24T15:25:39;8.80;99.90
31765;DHT22;18338;53.240;8.798;2023-04-24T15:28:14;8.90;99.90
31765;DHT22;18338;53.240;8.798;2023-04-24T15:30:42;8.80;99.90
31765;DHT22;18338;53.240;8.798;2023-04-24T15:33:15;8.80;99.90
31765;DHT22;18338;53.240;8.798;2023-04-24T15:35:51;8.80;99.90
31765;DHT22;18338;53.240;8.798;2023-04-24T15:38:18;8.90;99.90
31765;DHT22;18338;53.240;8.798;2023-04-24T15:40:44;8.90;99.90
31765;DHT22;18338;53.240;8.798;2023-04-24T15:43:11;9.00;99.90
31765;DHT22;18338;53.240;8.798;2023-04-24T15:45:38;9.00;99.90
31765;DHT22;18338;53.240;8.798;2023-04-24T15:48:05;9.00;99.90
31765;DHT22;18338;53.240;8.798;2023-04-24T15:50:32;9.00;99.90
31765;DHT22;18338;53.240;8.798;2023-04-24T15:52:59;9.00;99.90